sensor_id;sensor_type;location;lat;lon;timestamp;P1;durP1;ratioP1;P2;durP2;ratioP2
21181;SDS011;10749;46.296;7.524;2023-08-06T00:00:46;2.15;;;1.27;;
21181;SDS011;10749;46.296;7.524;2023-08-06T00:03:12;1.88;;;1.23;;
21181;SDS011;10749;46.296;7.524;2023-08-06T00:05:40;2.08;;;1.35;;
21181;SDS011;10749;46.296;7.524;2023-08-06T00:08:06;2.58;;;1.05;;
21181;SDS011;10749;46.296;7.524;2023-08-06T00:10:32;1.15;;;1.00;;
21181;SDS011;10749;46.296;7.524;2023-08-06T00:12:57;1.95;;;1.00;;
21181;SDS011;10749;46.296;7.524;2023-08-06T00:15:22;1.10;;;1.00;;
21181;SDS011;10749;46.296;7.524;2023-08-06T00:17:48;2.92;;;1.27;;
21181;SDS011;10749;46.296;7.524;2023-08-06T00:20:13;1.38;;;1.20;;
21181;SDS011;10749;46.296;7.524;2023-08-06T00:22:38;2.63;;;1.40;;
21181;SDS011;10749;46.296;7.524;2023-08-06T00:25:04;1.65;;;1.13;;
21181;SDS011;10749;46.296;7.524;2023-08-06T00:27:30;1.27;;;1.05;;
21181;SDS011;10749;46.296;7.524;2023-08-06T00:29:57;1.15;;;0.98;;
21181;SDS011;10749;46.296;7.524;2023-08-06T00:32:22;1.70;;;1.40;;
21181;SDS011;10749;46.296;7.524;2023-08-06T00:34:48;1.33;;;1.10;;
21181;SDS011;10749;46.296;7.524;2023-08-06T00:37:15;2.75;;;0.98;;
21181;SDS011;10749;46.296;7.524;2023-08-06T00:39:41;2.47;;;1.30;;
21181;SDS011;10749;46.296;7.524;2023-08-06T00:42:06;1.73;;;1.48;;
21181;SDS011;10749;46.296;7.524;2023-08-06T00:44:32;2.30;;;1.10;;
21181;SDS011;10749;46.296;7.524;2023-08-06T00:46:57;1.30;;;1.10;;
21181;SDS011;10749;46.296;7.524;2023-08-06T00:49:22;3.20;;;1.10;;
21181;SDS011;10749;46.296;7.524;2023-08-06T00:51:48;1.70;;;1.17;;
21181;SDS011;10749;46.296;7.524;2023-08-06T00:54:13;1.95;;;1.00;;
21181;SDS011;10749;46.296;7.524;2023-08-06T00:56:39;1.98;;;1.23;;
21181;SDS011;10749;46.296;7.524;2023-08-06T00:59:07;1.73;;;1.30;;
21181;SDS011;10749;46.296;7.524;2023-08-06T01:01:33;2.33;;;1.30;;
21181;SDS011;10749;46.296;7.524;2023-08-06T01:03:59;4.97;;;1.17;;
21181;SDS011;10749;46.296;7.524;2023-08-06T01:06:31;1.75;;;1.20;;
21181;SDS011;10749;46.296;7.524;2023-08-06T01:09:08;1.60;;;1.23;;
21181;SDS011;10749;46.296;7.524;2023-08-06T01:11:47;2.15;;;1.17;;
21181;SDS011;10749;46.296;7.524;2023-08-06T01:14:23;2.65;;;1.58;;
21181;SDS011;10749;46.296;7.524;2023-08-06T01:17:10;1.92;;;1.42;;
21181;SDS011;10749;46.296;7.524;2023-08-06T01:19:37;1.42;;;1.13;;
21181;SDS011;10749;46.296;7.524;2023-08-06T01:22:02;3.13;;;1.17;;
21181;SDS011;10749;46.296;7.524;2023-08-06T01:24:28;1.33;;;1.10;;
21181;SDS011;10749;46.296;7.524;2023-08-06T01:27:06;2.67;;;1.20;;
21181;SDS011;10749;46.296;7.524;2023-08-06T01:29:44;1.75;;;1.30;;
21181;SDS011;10749;46.296;7.524;2023-08-06T01:32:13;1.95;;;1.20;;
21181;SDS011;10749;46.296;7.524;2023-08-06T01:34:41;2.72;;;1.20;;
21181;SDS011;10749;46.296;7.524;2023-08-06T01:37:09;2.47;;;1.50;;
21181;SDS011;10749;46.296;7.524;2023-08-06T01:39:36;2.28;;;1.10;;
21181;SDS011;10749;46.296;7.524;2023-08-06T01:42:01;2.35;;;1.17;;
21181;SDS011;10749;46.296;7.524;2023-08-06T01:44:26;3.35;;;1.30;;
21181;SDS011;10749;46.296;7.524;2023-08-06T01:46:52;3.78;;;1.50;;
21181;SDS011;10749;46.296;7.524;2023-08-06T01:49:17;3.67;;;1.52;;
21181;SDS011;10749;46.296;7.524;2023-08-06T01:51:43;2.63;;;1.48;;
21181;SDS011;10749;46.296;7.524;2023-08-06T01:54:08;2.78;;;1.40;;
21181;SDS011;10749;46.296;7.524;2023-08-06T01:56:33;3.42;;;1.20;;
21181;SDS011;10749;46.296;7.524;2023-08-06T01:58:59;1.90;;;1.30;;
21181;SDS011;10749;46.296;7.524;2023-08-06T02:01:24;3.13;;;1.50;;
21181;SDS011;10749;46.296;7.524;2023-08-06T02:03:49;2.33;;;1.40;;
21181;SDS011;10749;46.296;7.524;2023-08-06T02:06:15;2.38;;;1.42;;
21181;SDS011;10749;46.296;7.524;2023-08-06T02:08:40;2.10;;;1.33;;
21181;SDS011;10749;46.296;7.524;2023-08-06T02:11:05;1.88;;;1.20;;
21181;SDS011;10749;46.296;7.524;2023-08-06T02:13:30;2.78;;;1.52;;
21181;SDS011;10749;46.296;7.524;2023-08-06T02:15:56;1.52;;;1.25;;
21181;SDS011;10749;46.296;7.524;2023-08-06T02:18:21;3.70;;;1.40;;
21181;SDS011;10749;46.296;7.524;2023-08-06T02:20:56;2.17;;;1.20;;
21181;SDS011;10749;46.296;7.524;2023-08-06T02:23:22;2.70;;;1.33;;
21181;SDS011;10749;46.296;7.524;2023-08-06T02:25:48;2.03;;;1.30;;
21181;SDS011;10749;46.296;7.524;2023-08-06T02:28:13;1.55;;;1.20;;
21181;SDS011;10749;46.296;7.524;2023-08-06T02:30:38;1.90;;;1.30;;
21181;SDS011;10749;46.296;7.524;2023-08-06T02:33:04;2.40;;;1.23;;
21181;SDS011;10749;46.296;7.524;2023-08-06T02:35:29;2.42;;;1.67;;
21181;SDS011;10749;46.296;7.524;2023-08-06T02:37:54;2.50;;;1.35;;
21181;SDS011;10749;46.296;7.524;2023-08-06T02:40:19;4.13;;;1.50;;
21181;SDS011;10749;46.296;7.524;2023-08-06T02:42:45;2.35;;;1.20;;
21181;SDS011;10749;46.296;7.524;2023-08-06T02:45:10;3.00;;;1.42;;
21181;SDS011;10749;46.296;7.524;2023-08-06T02:47:35;2.67;;;1.42;;
21181;SDS011;10749;46.296;7.524;2023-08-06T02:50:01;2.35;;;1.40;;
21181;SDS011;10749;46.296;7.524;2023-08-06T02:52:26;2.25;;;1.35;;
21181;SDS011;10749;46.296;7.524;2023-08-06T02:54:51;3.22;;;1.60;;
21181;SDS011;10749;46.296;7.524;2023-08-06T02:57:16;2.30;;;1.48;;
21181;SDS011;10749;46.296;7.524;2023-08-06T02:59:42;2.30;;;1.45;;
21181;SDS011;10749;46.296;7.524;2023-08-06T03:02:07;3.05;;;1.52;;
21181;SDS011;10749;46.296;7.524;2023-08-06T03:04:32;2.13;;;1.48;;
21181;SDS011;10749;46.296;7.524;2023-08-06T03:06:58;4.82;;;1.73;;
21181;SDS011;10749;46.296;7.524;2023-08-06T03:09:23;3.25;;;1.67;;
21181;SDS011;10749;46.296;7.524;2023-08-06T03:11:48;2.30;;;1.40;;
21181;SDS011;10749;46.296;7.524;2023-08-06T03:14:13;2.33;;;1.45;;
21181;SDS011;10749;46.296;7.524;2023-08-06T03:16:39;4.47;;;1.60;;
21181;SDS011;10749;46.296;7.524;2023-08-06T03:19:04;2.45;;;1.70;;
21181;SDS011;10749;46.296;7.524;2023-08-06T03:21:29;2.38;;;1.45;;
21181;SDS011;10749;46.296;7.524;2023-08-06T03:23:55;2.05;;;1.20;;
21181;SDS011;10749;46.296;7.524;2023-08-06T03:26:20;1.80;;;1.40;;
21181;SDS011;10749;46.296;7.524;2023-08-06T03:28:45;3.05;;;1.40;;
21181;SDS011;10749;46.296;7.524;2023-08-06T03:31:10;2.65;;;1.40;;
21181;SDS011;10749;46.296;7.524;2023-08-06T03:33:36;1.85;;;1.33;;
21181;SDS011;10749;46.296;7.524;2023-08-06T03:36:01;1.85;;;1.30;;
21181;SDS011;10749;46.296;7.524;2023-08-06T03:38:27;1.40;;;1.15;;
21181;SDS011;10749;46.296;7.524;2023-08-06T03:40:52;1.85;;;1.10;;
21181;SDS011;10749;46.296;7.524;2023-08-06T03:43:18;1.95;;;1.30;;
21181;SDS011;10749;46.296;7.524;2023-08-06T03:45:43;1.92;;;1.30;;
21181;SDS011;10749;46.296;7.524;2023-08-06T03:48:08;1.90;;;1.00;;
21181;SDS011;10749;46.296;7.524;2023-08-06T03:50:34;1.45;;;1.02;;
21181;SDS011;10749;46.296;7.524;2023-08-06T03:53:00;2.72;;;1.02;;
21181;SDS011;10749;46.296;7.524;2023-08-06T03:55:25;1.50;;;0.90;;
21181;SDS011;10749;46.296;7.524;2023-08-06T03:57:50;1.70;;;1.10;;
21181;SDS011;10749;46.296;7.524;2023-08-06T04:00:16;0.90;;;0.70;;
21181;SDS011;10749;46.296;7.524;2023-08-06T04:02:41;1.05;;;0.70;;
21181;SDS011;10749;46.296;7.524;2023-08-06T04:05:07;1.38;;;1.08;;
21181;SDS011;10749;46.296;7.524;2023-08-06T04:07:32;1.20;;;0.77;;
21181;SDS011;10749;46.296;7.524;2023-08-06T04:09:58;1.52;;;0.70;;
21181;SDS011;10749;46.296;7.524;2023-08-06T04:12:25;2.25;;;0.85;;
21181;SDS011;10749;46.296;7.524;2023-08-06T04:14:51;2.25;;;0.70;;
21181;SDS011;10749;46.296;7.524;2023-08-06T04:17:18;1.35;;;0.80;;
21181;SDS011;10749;46.296;7.524;2023-08-06T04:19:47;1.60;;;0.90;;
21181;SDS011;10749;46.296;7.524;2023-08-06T04:22:14;1.90;;;0.80;;
21181;SDS011;10749;46.296;7.524;2023-08-06T04:24:39;1.05;;;0.60;;
21181;SDS011;10749;46.296;7.524;2023-08-06T04:27:05;0.90;;;0.70;;
21181;SDS011;10749;46.296;7.524;2023-08-06T04:29:30;1.30;;;0.73;;
21181;SDS011;10749;46.296;7.524;2023-08-06T04:31:55;0.63;;;0.43;;
21181;SDS011;10749;46.296;7.524;2023-08-06T04:34:21;0.90;;;0.60;;
21181;SDS011;10749;46.296;7.524;2023-08-06T04:36:46;1.00;;;0.60;;
21181;SDS011;10749;46.296;7.524;2023-08-06T04:39:11;0.70;;;0.50;;
21181;SDS011;10749;46.296;7.524;2023-08-06T04:41:36;0.63;;;0.50;;
21181;SDS011;10749;46.296;7.524;2023-08-06T04:44:02;0.95;;;0.60;;
21181;SDS011;10749;46.296;7.524;2023-08-06T04:46:28;0.60;;;0.50;;
21181;SDS011;10749;46.296;7.524;2023-08-06T04:48:53;0.82;;;0.60;;
21181;SDS011;10749;46.296;7.524;2023-08-06T04:51:19;0.50;;;0.40;;
21181;SDS011;10749;46.296;7.524;2023-08-06T04:53:44;1.13;;;0.52;;
21181;SDS011;10749;46.296;7.524;2023-08-06T04:56:09;0.70;;;0.60;;
21181;SDS011;10749;46.296;7.524;2023-08-06T04:58:34;0.88;;;0.50;;
21181;SDS011;10749;46.296;7.524;2023-08-06T05:01:00;0.90;;;0.50;;
21181;SDS011;10749;46.296;7.524;2023-08-06T05:03:25;0.43;;;0.40;;
21181;SDS011;10749;46.296;7.524;2023-08-06T05:05:50;0.50;;;0.40;;
21181;SDS011;10749;46.296;7.524;2023-08-06T05:08:16;1.08;;;0.55;;
21181;SDS011;10749;46.296;7.524;2023-08-06T05:10:44;0.90;;;0.60;;
21181;SDS011;10749;46.296;7.524;2023-08-06T05:13:10;0.82;;;0.60;;
21181;SDS011;10749;46.296;7.524;2023-08-06T05:15:35;1.63;;;0.55;;
21181;SDS011;10749;46.296;7.524;2023-08-06T05:18:00;0.88;;;0.50;;
21181;SDS011;10749;46.296;7.524;2023-08-06T05:20:26;1.05;;;0.60;;
21181;SDS011;10749;46.296;7.524;2023-08-06T05:22:51;1.10;;;0.70;;
21181;SDS011;10749;46.296;7.524;2023-08-06T05:25:16;0.88;;;0.60;;
21181;SDS011;10749;46.296;7.524;2023-08-06T05:27:42;1.35;;;0.70;;
21181;SDS011;10749;46.296;7.524;2023-08-06T05:30:07;1.13;;;0.68;;
21181;SDS011;10749;46.296;7.524;2023-08-06T05:32:33;0.93;;;0.52;;
21181;SDS011;10749;46.296;7.524;2023-08-06T05:34:58;2.75;;;0.60;;
21181;SDS011;10749;46.296;7.524;2023-08-06T05:37:23;1.30;;;0.60;;
21181;SDS011;10749;46.296;7.524;2023-08-06T05:39:49;1.45;;;0.68;;
21181;SDS011;10749;46.296;7.524;2023-08-06T05:42:14;1.00;;;0.70;;
21181;SDS011;10749;46.296;7.524;2023-08-06T05:44:40;1.15;;;0.63;;
21181;SDS011;10749;46.296;7.524;2023-08-06T05:47:05;1.52;;;0.82;;
21181;SDS011;10749;46.296;7.524;2023-08-06T05:49:30;1.05;;;0.77;;
21181;SDS011;10749;46.296;7.524;2023-08-06T05:51:55;1.83;;;0.95;;
21181;SDS011;10749;46.296;7.524;2023-08-06T05:54:21;1.55;;;0.90;;
21181;SDS011;10749;46.296;7.524;2023-08-06T05:56:46;1.45;;;1.08;;
21181;SDS011;10749;46.296;7.524;2023-08-06T05:59:12;1.00;;;0.80;;
21181;SDS011;10749;46.296;7.524;2023-08-06T06:01:37;1.75;;;0.90;;
21181;SDS011;10749;46.296;7.524;2023-08-06T06:04:02;2.45;;;0.80;;
21181;SDS011;10749;46.296;7.524;2023-08-06T06:06:28;0.95;;;0.75;;
21181;SDS011;10749;46.296;7.524;2023-08-06T06:08:53;1.27;;;0.60;;
21181;SDS011;10749;46.296;7.524;2023-08-06T06:11:18;0.77;;;0.60;;
21181;SDS011;10749;46.296;7.524;2023-08-06T06:13:46;0.82;;;0.50;;
21181;SDS011;10749;46.296;7.524;2023-08-06T06:16:12;0.80;;;0.50;;
21181;SDS011;10749;46.296;7.524;2023-08-06T06:18:37;1.10;;;0.70;;
21181;SDS011;10749;46.296;7.524;2023-08-06T06:21:03;1.98;;;0.80;;
21181;SDS011;10749;46.296;7.524;2023-08-06T06:23:28;1.45;;;0.68;;
21181;SDS011;10749;46.296;7.524;2023-08-06T06:25:53;2.05;;;0.60;;
21181;SDS011;10749;46.296;7.524;2023-08-06T06:28:19;1.00;;;0.80;;
21181;SDS011;10749;46.296;7.524;2023-08-06T06:30:44;1.17;;;0.68;;
21181;SDS011;10749;46.296;7.524;2023-08-06T06:33:09;1.80;;;0.70;;
21181;SDS011;10749;46.296;7.524;2023-08-06T06:35:35;1.10;;;0.70;;
21181;SDS011;10749;46.296;7.524;2023-08-06T06:38:00;2.22;;;0.68;;
21181;SDS011;10749;46.296;7.524;2023-08-06T06:40:26;1.33;;;0.70;;
21181;SDS011;10749;46.296;7.524;2023-08-06T06:42:52;0.82;;;0.70;;
21181;SDS011;10749;46.296;7.524;2023-08-06T06:45:17;1.85;;;0.60;;
21181;SDS011;10749;46.296;7.524;2023-08-06T06:47:42;1.35;;;0.75;;
21181;SDS011;10749;46.296;7.524;2023-08-06T06:50:08;0.98;;;0.60;;
21181;SDS011;10749;46.296;7.524;2023-08-06T06:52:33;1.35;;;0.52;;
21181;SDS011;10749;46.296;7.524;2023-08-06T06:54:59;0.55;;;0.40;;
21181;SDS011;10749;46.296;7.524;2023-08-06T06:57:25;2.00;;;0.60;;
21181;SDS011;10749;46.296;7.524;2023-08-06T06:59:50;0.70;;;0.40;;
21181;SDS011;10749;46.296;7.524;2023-08-06T07:02:15;2.45;;;0.55;;
21181;SDS011;10749;46.296;7.524;2023-08-06T07:04:41;0.70;;;0.47;;
21181;SDS011;10749;46.296;7.524;2023-08-06T07:07:06;0.65;;;0.38;;
21181;SDS011;10749;46.296;7.524;2023-08-06T07:09:31;2.17;;;0.82;;
21181;SDS011;10749;46.296;7.524;2023-08-06T07:11:57;2.08;;;0.40;;
21181;SDS011;10749;46.296;7.524;2023-08-06T07:14:25;0.80;;;0.50;;
21181;SDS011;10749;46.296;7.524;2023-08-06T07:16:51;1.20;;;0.52;;
21181;SDS011;10749;46.296;7.524;2023-08-06T07:19:16;1.00;;;0.40;;
21181;SDS011;10749;46.296;7.524;2023-08-06T07:21:41;0.88;;;0.40;;
21181;SDS011;10749;46.296;7.524;2023-08-06T07:24:06;0.65;;;0.40;;
21181;SDS011;10749;46.296;7.524;2023-08-06T07:26:32;1.15;;;0.60;;
21181;SDS011;10749;46.296;7.524;2023-08-06T07:28:57;1.40;;;0.80;;
21181;SDS011;10749;46.296;7.524;2023-08-06T07:31:22;1.50;;;0.80;;
21181;SDS011;10749;46.296;7.524;2023-08-06T07:33:48;0.73;;;0.30;;
21181;SDS011;10749;46.296;7.524;2023-08-06T07:36:13;1.52;;;0.60;;
21181;SDS011;10749;46.296;7.524;2023-08-06T07:38:40;1.35;;;0.63;;
21181;SDS011;10749;46.296;7.524;2023-08-06T07:41:06;2.25;;;0.65;;
21181;SDS011;10749;46.296;7.524;2023-08-06T07:43:32;1.00;;;0.55;;
21181;SDS011;10749;46.296;7.524;2023-08-06T07:45:58;1.95;;;0.55;;
21181;SDS011;10749;46.296;7.524;2023-08-06T07:48:24;0.85;;;0.50;;
21181;SDS011;10749;46.296;7.524;2023-08-06T07:50:54;1.02;;;0.52;;
21181;SDS011;10749;46.296;7.524;2023-08-06T07:53:20;1.80;;;0.40;;
21181;SDS011;10749;46.296;7.524;2023-08-06T07:55:53;1.48;;;0.60;;
21181;SDS011;10749;46.296;7.524;2023-08-06T07:58:19;2.30;;;0.82;;
21181;SDS011;10749;46.296;7.524;2023-08-06T08:00:45;2.40;;;0.63;;
21181;SDS011;10749;46.296;7.524;2023-08-06T08:03:14;1.20;;;0.60;;
21181;SDS011;10749;46.296;7.524;2023-08-06T08:05:41;2.35;;;0.60;;
21181;SDS011;10749;46.296;7.524;2023-08-06T08:08:07;1.80;;;0.60;;
21181;SDS011;10749;46.296;7.524;2023-08-06T08:10:32;2.90;;;0.57;;
21181;SDS011;10749;46.296;7.524;2023-08-06T08:12:59;2.67;;;0.60;;
21181;SDS011;10749;46.296;7.524;2023-08-06T08:15:29;2.53;;;0.70;;
21181;SDS011;10749;46.296;7.524;2023-08-06T08:17:55;0.98;;;0.57;;
21181;SDS011;10749;46.296;7.524;2023-08-06T08:20:20;4.70;;;0.73;;
21181;SDS011;10749;46.296;7.524;2023-08-06T08:22:46;1.25;;;0.40;;
21181;SDS011;10749;46.296;7.524;2023-08-06T08:25:11;1.48;;;0.50;;
21181;SDS011;10749;46.296;7.524;2023-08-06T08:27:36;2.42;;;0.50;;
21181;SDS011;10749;46.296;7.524;2023-08-06T08:30:02;0.98;;;0.40;;
21181;SDS011;10749;46.296;7.524;2023-08-06T08:32:27;1.77;;;0.60;;
21181;SDS011;10749;46.296;7.524;2023-08-06T08:34:53;1.23;;;0.60;;
21181;SDS011;10749;46.296;7.524;2023-08-06T08:37:18;3.63;;;0.65;;
21181;SDS011;10749;46.296;7.524;2023-08-06T08:39:44;1.25;;;0.50;;
21181;SDS011;10749;46.296;7.524;2023-08-06T08:42:09;1.55;;;0.60;;
21181;SDS011;10749;46.296;7.524;2023-08-06T08:44:35;2.90;;;0.80;;
21181;SDS011;10749;46.296;7.524;2023-08-06T08:47:04;1.65;;;0.50;;
21181;SDS011;10749;46.296;7.524;2023-08-06T08:49:31;1.35;;;0.38;;
21181;SDS011;10749;46.296;7.524;2023-08-06T08:51:57;2.17;;;0.60;;
21181;SDS011;10749;46.296;7.524;2023-08-06T08:54:24;1.13;;;0.47;;
21181;SDS011;10749;46.296;7.524;2023-08-06T08:56:51;2.42;;;0.65;;
21181;SDS011;10749;46.296;7.524;2023-08-06T08:59:16;1.27;;;0.50;;
21181;SDS011;10749;46.296;7.524;2023-08-06T09:01:42;1.35;;;0.50;;
21181;SDS011;10749;46.296;7.524;2023-08-06T09:04:09;2.08;;;0.50;;
21181;SDS011;10749;46.296;7.524;2023-08-06T09:06:36;1.38;;;0.40;;
21181;SDS011;10749;46.296;7.524;2023-08-06T09:09:08;1.30;;;0.55;;
21181;SDS011;10749;46.296;7.524;2023-08-06T09:11:39;2.33;;;0.50;;
21181;SDS011;10749;46.296;7.524;2023-08-06T09:14:08;2.90;;;0.63;;
21181;SDS011;10749;46.296;7.524;2023-08-06T09:16:34;1.10;;;0.30;;
21181;SDS011;10749;46.296;7.524;2023-08-06T09:19:06;2.58;;;0.40;;
21181;SDS011;10749;46.296;7.524;2023-08-06T09:21:32;1.40;;;0.63;;
21181;SDS011;10749;46.296;7.524;2023-08-06T09:24:01;1.25;;;0.50;;
21181;SDS011;10749;46.296;7.524;2023-08-06T09:26:32;1.95;;;0.28;;
21181;SDS011;10749;46.296;7.524;2023-08-06T09:28:59;0.50;;;0.30;;
21181;SDS011;10749;46.296;7.524;2023-08-06T09:31:24;1.80;;;0.43;;
21181;SDS011;10749;46.296;7.524;2023-08-06T09:33:50;2.80;;;0.40;;
21181;SDS011;10749;46.296;7.524;2023-08-06T09:36:15;0.75;;;0.30;;
21181;SDS011;10749;46.296;7.524;2023-08-06T09:38:40;0.80;;;0.40;;
21181;SDS011;10749;46.296;7.524;2023-08-06T09:41:06;1.35;;;0.60;;
21181;SDS011;10749;46.296;7.524;2023-08-06T09:44:05;1.33;;;0.50;;
21181;SDS011;10749;46.296;7.524;2023-08-06T09:46:23;1.77;;;0.40;;
21181;SDS011;10749;46.296;7.524;2023-08-06T09:48:50;2.15;;;0.30;;
21181;SDS011;10749;46.296;7.524;2023-08-06T09:51:15;2.15;;;0.75;;
21181;SDS011;10749;46.296;7.524;2023-08-06T09:53:41;0.75;;;0.40;;
21181;SDS011;10749;46.296;7.524;2023-08-06T09:56:07;1.27;;;0.30;;
21181;SDS011;10749;46.296;7.524;2023-08-06T09:58:34;1.08;;;0.20;;
21181;SDS011;10749;46.296;7.524;2023-08-06T10:01:01;0.82;;;0.20;;
21181;SDS011;10749;46.296;7.524;2023-08-06T10:03:27;1.33;;;0.30;;
21181;SDS011;10749;46.296;7.524;2023-08-06T10:05:55;1.25;;;0.30;;
21181;SDS011;10749;46.296;7.524;2023-08-06T10:08:20;1.70;;;0.20;;
21181;SDS011;10749;46.296;7.524;2023-08-06T10:10:47;1.15;;;0.50;;
21181;SDS011;10749;46.296;7.524;2023-08-06T10:13:12;1.25;;;0.40;;
21181;SDS011;10749;46.296;7.524;2023-08-06T10:15:38;0.60;;;0.20;;
21181;SDS011;10749;46.296;7.524;2023-08-06T10:18:05;0.98;;;0.30;;
21181;SDS011;10749;46.296;7.524;2023-08-06T10:20:35;6.65;;;5.95;;
21181;SDS011;10749;46.296;7.524;2023-08-06T10:23:04;3.38;;;2.95;;
21181;SDS011;10749;46.296;7.524;2023-08-06T10:25:32;2.17;;;1.98;;
21181;SDS011;10749;46.296;7.524;2023-08-06T10:28:10;1.67;;;0.50;;
21181;SDS011;10749;46.296;7.524;2023-08-06T10:30:42;0.98;;;0.40;;
21181;SDS011;10749;46.296;7.524;2023-08-06T10:33:09;0.77;;;0.22;;
21181;SDS011;10749;46.296;7.524;2023-08-06T10:35:40;0.50;;;0.20;;
21181;SDS011;10749;46.296;7.524;2023-08-06T10:38:14;0.32;;;0.20;;
21181;SDS011;10749;46.296;7.524;2023-08-06T10:40:40;0.57;;;0.17;;
21181;SDS011;10749;46.296;7.524;2023-08-06T10:43:24;1.00;;;0.30;;
21181;SDS011;10749;46.296;7.524;2023-08-06T10:46:03;0.52;;;0.20;;
21181;SDS011;10749;46.296;7.524;2023-08-06T10:48:38;0.15;;;0.10;;
21181;SDS011;10749;46.296;7.524;2023-08-06T10:51:07;0.20;;;0.10;;
21181;SDS011;10749;46.296;7.524;2023-08-06T10:53:39;0.28;;;0.20;;
21181;SDS011;10749;46.296;7.524;2023-08-06T10:58:43;0.10;;;0.10;;
21181;SDS011;10749;46.296;7.524;2023-08-06T11:01:10;0.20;;;0.10;;
21181;SDS011;10749;46.296;7.524;2023-08-06T11:03:36;0.40;;;0.20;;
21181;SDS011;10749;46.296;7.524;2023-08-06T11:06:02;0.45;;;0.20;;
21181;SDS011;10749;46.296;7.524;2023-08-06T11:08:29;1.05;;;0.20;;
21181;SDS011;10749;46.296;7.524;2023-08-06T11:11:07;0.35;;;0.20;;
21181;SDS011;10749;46.296;7.524;2023-08-06T11:13:35;0.52;;;0.20;;
21181;SDS011;10749;46.296;7.524;2023-08-06T11:16:01;0.30;;;0.10;;
21181;SDS011;10749;46.296;7.524;2023-08-06T11:18:26;0.40;;;0.10;;
21181;SDS011;10749;46.296;7.524;2023-08-06T11:20:51;0.52;;;0.20;;
21181;SDS011;10749;46.296;7.524;2023-08-06T11:23:17;0.22;;;0.13;;
21181;SDS011;10749;46.296;7.524;2023-08-06T11:25:46;0.80;;;0.10;;
21181;SDS011;10749;46.296;7.524;2023-08-06T11:28:11;0.40;;;0.10;;
21181;SDS011;10749;46.296;7.524;2023-08-06T11:30:37;0.20;;;0.13;;
21181;SDS011;10749;46.296;7.524;2023-08-06T11:33:03;0.30;;;0.10;;
21181;SDS011;10749;46.296;7.524;2023-08-06T11:35:28;0.47;;;0.17;;
21181;SDS011;10749;46.296;7.524;2023-08-06T11:37:54;0.10;;;0.10;;
21181;SDS011;10749;46.296;7.524;2023-08-06T11:40:19;0.55;;;0.17;;
21181;SDS011;10749;46.296;7.524;2023-08-06T11:42:46;0.17;;;0.10;;
21181;SDS011;10749;46.296;7.524;2023-08-06T11:45:11;0.20;;;0.10;;
21181;SDS011;10749;46.296;7.524;2023-08-06T11:47:40;0.40;;;0.30;;
21181;SDS011;10749;46.296;7.524;2023-08-06T11:50:05;0.20;;;0.10;;
21181;SDS011;10749;46.296;7.524;2023-08-06T11:52:31;0.35;;;0.10;;
21181;SDS011;10749;46.296;7.524;2023-08-06T11:55:06;0.50;;;0.20;;
21181;SDS011;10749;46.296;7.524;2023-08-06T11:57:35;0.40;;;0.10;;
21181;SDS011;10749;46.296;7.524;2023-08-06T12:00:08;0.60;;;0.20;;
21181;SDS011;10749;46.296;7.524;2023-08-06T12:02:35;0.20;;;0.10;;
21181;SDS011;10749;46.296;7.524;2023-08-06T12:07:29;1.05;;;0.10;;
21181;SDS011;10749;46.296;7.524;2023-08-06T12:09:56;0.10;;;0.10;;
21181;SDS011;10749;46.296;7.524;2023-08-06T12:12:22;0.52;;;0.10;;
21181;SDS011;10749;46.296;7.524;2023-08-06T12:14:47;0.40;;;0.10;;
21181;SDS011;10749;46.296;7.524;2023-08-06T12:17:13;0.10;;;0.10;;
21181;SDS011;10749;46.296;7.524;2023-08-06T12:19:38;0.20;;;0.10;;
21181;SDS011;10749;46.296;7.524;2023-08-06T12:22:03;0.43;;;0.20;;
21181;SDS011;10749;46.296;7.524;2023-08-06T12:24:29;0.08;;;0.08;;
21181;SDS011;10749;46.296;7.524;2023-08-06T12:26:56;0.20;;;0.10;;
21181;SDS011;10749;46.296;7.524;2023-08-06T12:29:25;0.30;;;0.10;;
21181;SDS011;10749;46.296;7.524;2023-08-06T12:31:50;0.10;;;0.10;;
21181;SDS011;10749;46.296;7.524;2023-08-06T12:34:16;0.63;;;0.10;;
21181;SDS011;10749;46.296;7.524;2023-08-06T12:36:41;0.20;;;0.10;;
21181;SDS011;10749;46.296;7.524;2023-08-06T12:39:06;0.08;;;0.08;;
21181;SDS011;10749;46.296;7.524;2023-08-06T12:41:32;0.10;;;0.10;;
21181;SDS011;10749;46.296;7.524;2023-08-06T12:43:57;0.10;;;0.10;;
21181;SDS011;10749;46.296;7.524;2023-08-06T12:46:22;0.60;;;0.10;;
21181;SDS011;10749;46.296;7.524;2023-08-06T12:48:47;1.75;;;0.20;;
21181;SDS011;10749;46.296;7.524;2023-08-06T12:51:13;0.10;;;0.10;;
21181;SDS011;10749;46.296;7.524;2023-08-06T12:53:39;0.10;;;0.10;;
21181;SDS011;10749;46.296;7.524;2023-08-06T12:56:04;0.30;;;0.10;;
21181;SDS011;10749;46.296;7.524;2023-08-06T12:58:29;0.17;;;0.10;;
21181;SDS011;10749;46.296;7.524;2023-08-06T13:00:54;0.40;;;0.20;;
21181;SDS011;10749;46.296;7.524;2023-08-06T13:03:20;0.20;;;0.10;;
21181;SDS011;10749;46.296;7.524;2023-08-06T13:05:46;0.30;;;0.10;;
21181;SDS011;10749;46.296;7.524;2023-08-06T13:08:11;0.30;;;0.15;;
21181;SDS011;10749;46.296;7.524;2023-08-06T13:10:36;0.10;;;0.10;;
21181;SDS011;10749;46.296;7.524;2023-08-06T13:13:02;0.65;;;0.10;;
21181;SDS011;10749;46.296;7.524;2023-08-06T13:15:27;0.38;;;0.10;;
21181;SDS011;10749;46.296;7.524;2023-08-06T13:17:52;0.00;;;0.00;;
21181;SDS011;10749;46.296;7.524;2023-08-06T13:20:17;0.52;;;0.10;;
21181;SDS011;10749;46.296;7.524;2023-08-06T13:22:44;0.10;;;0.10;;
21181;SDS011;10749;46.296;7.524;2023-08-06T13:25:11;0.20;;;0.10;;
21181;SDS011;10749;46.296;7.524;2023-08-06T13:27:36;0.20;;;0.10;;
21181;SDS011;10749;46.296;7.524;2023-08-06T13:30:02;0.10;;;0.10;;
21181;SDS011;10749;46.296;7.524;2023-08-06T13:32:28;0.40;;;0.10;;
21181;SDS011;10749;46.296;7.524;2023-08-06T13:34:53;0.30;;;0.20;;
21181;SDS011;10749;46.296;7.524;2023-08-06T13:37:18;1.75;;;0.20;;
21181;SDS011;10749;46.296;7.524;2023-08-06T13:39:43;0.28;;;0.10;;
21181;SDS011;10749;46.296;7.524;2023-08-06T13:42:09;0.43;;;0.10;;
21181;SDS011;10749;46.296;7.524;2023-08-06T13:44:34;0.10;;;0.05;;
21181;SDS011;10749;46.296;7.524;2023-08-06T13:47:01;0.10;;;0.10;;
21181;SDS011;10749;46.296;7.524;2023-08-06T13:49:27;0.32;;;0.10;;
21181;SDS011;10749;46.296;7.524;2023-08-06T13:51:52;0.47;;;0.10;;
21181;SDS011;10749;46.296;7.524;2023-08-06T13:54:17;0.20;;;0.10;;
21181;SDS011;10749;46.296;7.524;2023-08-06T13:56:43;0.65;;;0.10;;
21181;SDS011;10749;46.296;7.524;2023-08-06T13:59:08;0.30;;;0.10;;
21181;SDS011;10749;46.296;7.524;2023-08-06T14:01:38;0.25;;;0.20;;
21181;SDS011;10749;46.296;7.524;2023-08-06T14:04:03;0.20;;;0.20;;
21181;SDS011;10749;46.296;7.524;2023-08-06T14:06:29;0.10;;;0.10;;
21181;SDS011;10749;46.296;7.524;2023-08-06T14:08:55;0.17;;;0.10;;
21181;SDS011;10749;46.296;7.524;2023-08-06T14:11:20;0.28;;;0.10;;
21181;SDS011;10749;46.296;7.524;2023-08-06T14:13:46;0.30;;;0.10;;
21181;SDS011;10749;46.296;7.524;2023-08-06T14:16:11;0.10;;;0.10;;
21181;SDS011;10749;46.296;7.524;2023-08-06T14:18:36;0.22;;;0.10;;
21181;SDS011;10749;46.296;7.524;2023-08-06T14:21:03;0.00;;;0.00;;
21181;SDS011;10749;46.296;7.524;2023-08-06T14:23:29;0.20;;;0.10;;
21181;SDS011;10749;46.296;7.524;2023-08-06T14:25:54;0.85;;;0.20;;
21181;SDS011;10749;46.296;7.524;2023-08-06T14:28:19;0.10;;;0.10;;
21181;SDS011;10749;46.296;7.524;2023-08-06T14:30:45;9.27;;;4.25;;
21181;SDS011;10749;46.296;7.524;2023-08-06T14:33:10;5.63;;;2.47;;
21181;SDS011;10749;46.296;7.524;2023-08-06T14:35:35;10.73;;;5.25;;
21181;SDS011;10749;46.296;7.524;2023-08-06T14:38:01;6.53;;;3.92;;
21181;SDS011;10749;46.296;7.524;2023-08-06T14:40:26;4.93;;;2.25;;
21181;SDS011;10749;46.296;7.524;2023-08-06T14:42:53;12.38;;;6.75;;
21181;SDS011;10749;46.296;7.524;2023-08-06T14:45:18;7.50;;;2.53;;
21181;SDS011;10749;46.296;7.524;2023-08-06T14:47:44;6.05;;;3.17;;